sensor_id;sensor_type;location;lat;lon;timestamp;P1;durP1;ratioP1;P2;durP2;ratioP2
69917;SDS011;57203;42.672;23.334;2023-03-14T00:00:16;8.0;;;5.2;;
69917;SDS011;57203;42.672;23.334;2023-03-14T00:01:18;9.3;;;5.0;;
69917;SDS011;57203;42.672;23.334;2023-03-14T00:02:16;11.2;;;4.6;;
69917;SDS011;57203;42.672;23.334;2023-03-14T00:03:17;6.8;;;5.0;;
69917;SDS011;57203;42.672;23.334;2023-03-14T00:04:17;9.4;;;4.7;;
69917;SDS011;57203;42.672;23.334;2023-03-14T00:05:17;12.1;;;5.2;;
69917;SDS011;57203;42.672;23.334;2023-03-14T00:06:17;7.7;;;4.9;;
69917;SDS011;57203;42.672;23.334;2023-03-14T00:07:17;7.3;;;4.5;;
69917;SDS011;57203;42.672;23.334;2023-03-14T00:08:18;6.5;;;5.0;;
69917;SDS011;57203;42.672;23.334;2023-03-14T00:09:17;8.7;;;5.1;;
69917;SDS011;57203;42.672;23.334;2023-03-14T00:10:18;8.7;;;5.4;;
69917;SDS011;57203;42.672;23.334;2023-03-14T00:11:18;12.8;;;5.6;;
69917;SDS011;57203;42.672;23.334;2023-03-14T00:12:18;11.1;;;5.7;;
69917;SDS011;57203;42.672;23.334;2023-03-14T00:13:18;9.5;;;5.9;;
69917;SDS011;57203;42.672;23.334;2023-03-14T00:14:18;10.3;;;5.8;;
69917;SDS011;57203;42.672;23.334;2023-03-14T00:15:18;10.3;;;6.3;;
69917;SDS011;57203;42.672;23.334;2023-03-14T00:16:19;11.0;;;6.9;;
69917;SDS011;57203;42.672;23.334;2023-03-14T00:17:19;10.4;;;6.7;;
69917;SDS011;57203;42.672;23.334;2023-03-14T00:18:19;10.4;;;8.1;;
69917;SDS011;57203;42.672;23.334;2023-03-14T00:19:19;14.7;;;8.7;;
69917;SDS011;57203;42.672;23.334;2023-03-14T00:20:19;15.4;;;8.0;;
69917;SDS011;57203;42.672;23.334;2023-03-14T00:21:19;12.2;;;9.0;;
69917;SDS011;57203;42.672;23.334;2023-03-14T00:22:19;16.5;;;8.2;;
69917;SDS011;57203;42.672;23.334;2023-03-14T00:23:20;13.7;;;7.8;;
69917;SDS011;57203;42.672;23.334;2023-03-14T00:24:20;13.7;;;9.2;;
69917;SDS011;57203;42.672;23.334;2023-03-14T00:25:20;14.1;;;8.2;;
69917;SDS011;57203;42.672;23.334;2023-03-14T00:26:21;14.1;;;10.3;;
69917;SDS011;57203;42.672;23.334;2023-03-14T00:27:20;15.5;;;9.0;;
69917;SDS011;57203;42.672;23.334;2023-03-14T00:28:20;20.1;;;10.1;;
69917;SDS011;57203;42.672;23.334;2023-03-14T00:29:21;20.1;;;10.4;;
69917;SDS011;57203;42.672;23.334;2023-03-14T00:30:21;19.5;;;10.8;;
69917;SDS011;57203;42.672;23.334;2023-03-14T00:31:21;19.3;;;9.5;;
69917;SDS011;57203;42.672;23.334;2023-03-14T00:32:21;15.0;;;9.2;;
69917;SDS011;57203;42.672;23.334;2023-03-14T00:33:21;15.0;;;9.3;;
69917;SDS011;57203;42.672;23.334;2023-03-14T00:34:21;16.1;;;8.5;;
69917;SDS011;57203;42.672;23.334;2023-03-14T00:35:21;13.5;;;8.2;;
69917;SDS011;57203;42.672;23.334;2023-03-14T00:36:22;21.2;;;8.5;;
69917;SDS011;57203;42.672;23.334;2023-03-14T00:37:22;21.2;;;8.7;;
69917;SDS011;57203;42.672;23.334;2023-03-14T00:38:22;17.9;;;8.3;;
69917;SDS011;57203;42.672;23.334;2023-03-14T00:39:22;14.3;;;8.5;;
69917;SDS011;57203;42.672;23.334;2023-03-14T00:40:22;14.3;;;8.3;;
69917;SDS011;57203;42.672;23.334;2023-03-14T00:41:22;16.3;;;11.0;;
69917;SDS011;57203;42.672;23.334;2023-03-14T00:42:22;18.3;;;9.4;;
69917;SDS011;57203;42.672;23.334;2023-03-14T00:43:23;18.3;;;8.4;;
69917;SDS011;57203;42.672;23.334;2023-03-14T00:44:23;16.5;;;9.1;;
69917;SDS011;57203;42.672;23.334;2023-03-14T00:45:23;16.5;;;9.9;;
69917;SDS011;57203;42.672;23.334;2023-03-14T00:46:23;17.6;;;8.5;;
69917;SDS011;57203;42.672;23.334;2023-03-14T00:47:23;14.1;;;8.3;;
69917;SDS011;57203;42.672;23.334;2023-03-14T00:49:23;15.6;;;7.5;;
69917;SDS011;57203;42.672;23.334;2023-03-14T00:50:24;12.4;;;7.7;;
69917;SDS011;57203;42.672;23.334;2023-03-14T00:51:24;13.1;;;7.5;;
69917;SDS011;57203;42.672;23.334;2023-03-14T00:52:24;11.4;;;7.2;;
69917;SDS011;57203;42.672;23.334;2023-03-14T00:53:24;12.4;;;7.0;;
69917;SDS011;57203;42.672;23.334;2023-03-14T00:54:24;12.4;;;6.6;;
69917;SDS011;57203;42.672;23.334;2023-03-14T00:55:24;10.0;;;6.9;;
69917;SDS011;57203;42.672;23.334;2023-03-14T00:56:24;12.9;;;6.6;;
69917;SDS011;57203;42.672;23.334;2023-03-14T00:57:25;11.7;;;7.7;;
69917;SDS011;57203;42.672;23.334;2023-03-14T00:58:25;14.2;;;8.1;;
69917;SDS011;57203;42.672;23.334;2023-03-14T00:59:25;14.2;;;6.6;;
69917;SDS011;57203;42.672;23.334;2023-03-14T01:00:25;13.1;;;7.2;;
69917;SDS011;57203;42.672;23.334;2023-03-14T01:03:25;12.9;;;6.5;;
69917;SDS011;57203;42.672;23.334;2023-03-14T01:04:26;10.9;;;6.0;;
69917;SDS011;57203;42.672;23.334;2023-03-14T01:05:26;8.4;;;6.9;;
69917;SDS011;57203;42.672;23.334;2023-03-14T01:06:27;11.3;;;7.0;;
69917;SDS011;57203;42.672;23.334;2023-03-14T01:07:26;9.6;;;7.4;;
69917;SDS011;57203;42.672;23.334;2023-03-14T01:08:26;10.6;;;7.7;;
69917;SDS011;57203;42.672;23.334;2023-03-14T01:09:26;12.4;;;6.9;;
69917;SDS011;57203;42.672;23.334;2023-03-14T01:10:27;12.0;;;6.8;;
69917;SDS011;57203;42.672;23.334;2023-03-14T01:11:27;10.9;;;6.0;;
69917;SDS011;57203;42.672;23.334;2023-03-14T01:12:27;11.6;;;5.8;;
69917;SDS011;57203;42.672;23.334;2023-03-14T01:13:27;10.1;;;6.1;;
69917;SDS011;57203;42.672;23.334;2023-03-14T01:15:27;9.4;;;6.5;;
69917;SDS011;57203;42.672;23.334;2023-03-14T01:17:28;10.5;;;5.8;;
69917;SDS011;57203;42.672;23.334;2023-03-14T01:18:28;10.8;;;6.6;;
69917;SDS011;57203;42.672;23.334;2023-03-14T01:19:28;10.9;;;6.7;;
69917;SDS011;57203;42.672;23.334;2023-03-14T01:20:28;11.3;;;5.8;;
69917;SDS011;57203;42.672;23.334;2023-03-14T01:21:29;9.2;;;6.0;;
69917;SDS011;57203;42.672;23.334;2023-03-14T01:22:28;10.0;;;5.8;;
69917;SDS011;57203;42.672;23.334;2023-03-14T01:23:28;10.9;;;6.9;;
69917;SDS011;57203;42.672;23.334;2023-03-14T01:24:29;11.6;;;6.0;;
69917;SDS011;57203;42.672;23.334;2023-03-14T01:25:29;12.6;;;6.6;;
69917;SDS011;57203;42.672;23.334;2023-03-14T01:26:29;12.6;;;6.8;;
69917;SDS011;57203;42.672;23.334;2023-03-14T01:27:29;13.5;;;6.7;;
69917;SDS011;57203;42.672;23.334;2023-03-14T01:28:29;11.9;;;6.6;;
69917;SDS011;57203;42.672;23.334;2023-03-14T01:29:29;11.9;;;6.5;;
69917;SDS011;57203;42.672;23.334;2023-03-14T01:31:30;10.0;;;6.7;;
69917;SDS011;57203;42.672;23.334;2023-03-14T01:32:30;12.4;;;6.3;;
69917;SDS011;57203;42.672;23.334;2023-03-14T01:33:30;10.2;;;6.0;;
69917;SDS011;57203;42.672;23.334;2023-03-14T01:34:30;10.2;;;4.8;;
69917;SDS011;57203;42.672;23.334;2023-03-14T01:35:30;9.5;;;5.5;;
69917;SDS011;57203;42.672;23.334;2023-03-14T01:36:30;9.5;;;6.5;;
69917;SDS011;57203;42.672;23.334;2023-03-14T01:37:30;11.5;;;6.9;;
69917;SDS011;57203;42.672;23.334;2023-03-14T01:39:31;12.0;;;6.4;;
69917;SDS011;57203;42.672;23.334;2023-03-14T01:40:31;12.1;;;6.2;;
69917;SDS011;57203;42.672;23.334;2023-03-14T01:41:31;10.6;;;6.4;;
69917;SDS011;57203;42.672;23.334;2023-03-14T01:42:31;12.2;;;6.2;;
69917;SDS011;57203;42.672;23.334;2023-03-14T01:43:31;10.7;;;5.8;;
69917;SDS011;57203;42.672;23.334;2023-03-14T01:46:34;9.9;;;5.5;;
69917;SDS011;57203;42.672;23.334;2023-03-14T01:47:32;9.9;;;5.9;;
69917;SDS011;57203;42.672;23.334;2023-03-14T01:48:33;11.0;;;7.2;;
69917;SDS011;57203;42.672;23.334;2023-03-14T01:49:33;10.5;;;6.2;;
69917;SDS011;57203;42.672;23.334;2023-03-14T01:50:32;11.6;;;6.7;;
69917;SDS011;57203;42.672;23.334;2023-03-14T01:51:34;13.6;;;12.6;;
69917;SDS011;57203;42.672;23.334;2023-03-14T01:52:34;14.2;;;9.2;;
69917;SDS011;57203;42.672;23.334;2023-03-14T01:53:33;14.2;;;11.2;;
69917;SDS011;57203;42.672;23.334;2023-03-14T01:54:34;17.6;;;9.4;;
69917;SDS011;57203;42.672;23.334;2023-03-14T01:55:33;15.6;;;9.6;;
69917;SDS011;57203;42.672;23.334;2023-03-14T01:56:33;16.8;;;8.2;;
69917;SDS011;57203;42.672;23.334;2023-03-14T01:57:35;13.5;;;6.3;;
69917;SDS011;57203;42.672;23.334;2023-03-14T01:58:34;10.3;;;7.8;;
69917;SDS011;57203;42.672;23.334;2023-03-14T02:00:34;12.7;;;8.3;;
69917;SDS011;57203;42.672;23.334;2023-03-14T02:01:34;12.9;;;8.9;;
69917;SDS011;57203;42.672;23.334;2023-03-14T02:02:34;14.3;;;8.4;;
69917;SDS011;57203;42.672;23.334;2023-03-14T02:04:35;15.8;;;8.9;;
69917;SDS011;57203;42.672;23.334;2023-03-14T02:05:35;14.9;;;8.5;;
69917;SDS011;57203;42.672;23.334;2023-03-14T02:06:38;13.3;;;7.3;;
69917;SDS011;57203;42.672;23.334;2023-03-14T02:07:36;10.9;;;7.4;;
69917;SDS011;57203;42.672;23.334;2023-03-14T02:08:35;13.3;;;8.7;;
69917;SDS011;57203;42.672;23.334;2023-03-14T02:09:35;13.3;;;7.2;;
69917;SDS011;57203;42.672;23.334;2023-03-14T02:10:37;12.7;;;7.6;;
69917;SDS011;57203;42.672;23.334;2023-03-14T02:11:36;12.7;;;6.7;;
69917;SDS011;57203;42.672;23.334;2023-03-14T02:12:36;13.5;;;7.6;;
69917;SDS011;57203;42.672;23.334;2023-03-14T02:13:36;13.5;;;7.0;;
69917;SDS011;57203;42.672;23.334;2023-03-14T02:14:36;13.2;;;7.3;;
69917;SDS011;57203;42.672;23.334;2023-03-14T02:15:36;12.5;;;7.4;;
69917;SDS011;57203;42.672;23.334;2023-03-14T02:16:36;15.1;;;8.9;;
69917;SDS011;57203;42.672;23.334;2023-03-14T02:17:37;15.1;;;9.6;;
69917;SDS011;57203;42.672;23.334;2023-03-14T02:18:37;19.5;;;9.8;;
69917;SDS011;57203;42.672;23.334;2023-03-14T02:19:42;18.5;;;9.7;;
69917;SDS011;57203;42.672;23.334;2023-03-14T02:20:38;20.9;;;11.7;;
69917;SDS011;57203;42.672;23.334;2023-03-14T02:21:39;20.9;;;10.5;;
69917;SDS011;57203;42.672;23.334;2023-03-14T02:22:38;18.1;;;10.3;;
69917;SDS011;57203;42.672;23.334;2023-03-14T02:23:39;18.1;;;10.9;;
69917;SDS011;57203;42.672;23.334;2023-03-14T02:24:39;19.5;;;10.8;;
69917;SDS011;57203;42.672;23.334;2023-03-14T02:25:39;18.9;;;9.4;;
69917;SDS011;57203;42.672;23.334;2023-03-14T02:26:38;21.7;;;10.0;;
69917;SDS011;57203;42.672;23.334;2023-03-14T02:27:38;21.7;;;9.6;;
69917;SDS011;57203;42.672;23.334;2023-03-14T02:28:38;18.2;;;8.9;;
69917;SDS011;57203;42.672;23.334;2023-03-14T02:29:39;21.6;;;9.7;;
69917;SDS011;57203;42.672;23.334;2023-03-14T02:30:39;21.6;;;8.5;;
69917;SDS011;57203;42.672;23.334;2023-03-14T02:31:39;15.1;;;8.6;;
69917;SDS011;57203;42.672;23.334;2023-03-14T02:32:40;15.1;;;9.2;;
69917;SDS011;57203;42.672;23.334;2023-03-14T02:33:39;13.9;;;8.3;;
69917;SDS011;57203;42.672;23.334;2023-03-14T02:34:39;13.9;;;9.1;;
69917;SDS011;57203;42.672;23.334;2023-03-14T02:35:40;16.6;;;8.7;;
69917;SDS011;57203;42.672;23.334;2023-03-14T02:36:39;16.7;;;9.2;;
69917;SDS011;57203;42.672;23.334;2023-03-14T02:37:40;15.0;;;8.5;;
69917;SDS011;57203;42.672;23.334;2023-03-14T02:38:41;15.0;;;9.0;;
69917;SDS011;57203;42.672;23.334;2023-03-14T02:39:41;18.5;;;7.7;;
69917;SDS011;57203;42.672;23.334;2023-03-14T02:40:40;12.6;;;9.2;;
69917;SDS011;57203;42.672;23.334;2023-03-14T02:41:40;16.3;;;9.7;;
69917;SDS011;57203;42.672;23.334;2023-03-14T02:42:40;17.2;;;9.8;;
69917;SDS011;57203;42.672;23.334;2023-03-14T02:44:49;16.7;;;11.8;;
69917;SDS011;57203;42.672;23.334;2023-03-14T02:45:42;22.3;;;10.0;;
69917;SDS011;57203;42.672;23.334;2023-03-14T02:46:41;16.1;;;10.5;;
69917;SDS011;57203;42.672;23.334;2023-03-14T02:47:42;20.2;;;12.0;;
69917;SDS011;57203;42.672;23.334;2023-03-14T02:48:42;17.4;;;11.2;;
69917;SDS011;57203;42.672;23.334;2023-03-14T02:49:41;17.4;;;10.5;;
69917;SDS011;57203;42.672;23.334;2023-03-14T02:50:42;19.0;;;10.9;;
69917;SDS011;57203;42.672;23.334;2023-03-14T02:51:42;19.0;;;11.1;;
69917;SDS011;57203;42.672;23.334;2023-03-14T02:52:42;18.4;;;10.8;;
69917;SDS011;57203;42.672;23.334;2023-03-14T02:53:42;18.9;;;10.9;;
69917;SDS011;57203;42.672;23.334;2023-03-14T02:54:42;18.0;;;11.0;;
69917;SDS011;57203;42.672;23.334;2023-03-14T02:55:44;20.0;;;11.1;;
69917;SDS011;57203;42.672;23.334;2023-03-14T02:56:42;20.0;;;10.9;;
69917;SDS011;57203;42.672;23.334;2023-03-14T02:57:42;19.0;;;10.7;;
69917;SDS011;57203;42.672;23.334;2023-03-14T02:58:43;19.7;;;11.0;;
69917;SDS011;57203;42.672;23.334;2023-03-14T02:59:43;21.2;;;10.7;;
69917;SDS011;57203;42.672;23.334;2023-03-14T03:00:43;17.0;;;11.0;;
69917;SDS011;57203;42.672;23.334;2023-03-14T03:02:43;18.3;;;10.7;;
69917;SDS011;57203;42.672;23.334;2023-03-14T03:04:44;19.4;;;10.6;;
69917;SDS011;57203;42.672;23.334;2023-03-14T03:05:47;19.4;;;10.7;;
69917;SDS011;57203;42.672;23.334;2023-03-14T03:06:44;20.9;;;10.2;;
69917;SDS011;57203;42.672;23.334;2023-03-14T03:07:44;21.4;;;11.1;;
69917;SDS011;57203;42.672;23.334;2023-03-14T03:08:44;20.1;;;10.3;;
69917;SDS011;57203;42.672;23.334;2023-03-14T03:09:44;19.2;;;11.0;;
69917;SDS011;57203;42.672;23.334;2023-03-14T03:10:44;19.2;;;11.2;;
69917;SDS011;57203;42.672;23.334;2023-03-14T03:11:45;22.7;;;10.9;;
69917;SDS011;57203;42.672;23.334;2023-03-14T03:13:45;20.2;;;9.7;;
69917;SDS011;57203;42.672;23.334;2023-03-14T03:14:45;19.8;;;10.3;;
69917;SDS011;57203;42.672;23.334;2023-03-14T03:15:45;18.6;;;9.1;;
69917;SDS011;57203;42.672;23.334;2023-03-14T03:16:45;16.1;;;9.9;;
69917;SDS011;57203;42.672;23.334;2023-03-14T03:17:45;16.8;;;10.5;;
69917;SDS011;57203;42.672;23.334;2023-03-14T03:18:46;17.4;;;9.6;;
69917;SDS011;57203;42.672;23.334;2023-03-14T03:19:46;15.0;;;9.7;;
69917;SDS011;57203;42.672;23.334;2023-03-14T03:20:46;17.4;;;9.5;;
69917;SDS011;57203;42.672;23.334;2023-03-14T03:21:46;18.2;;;11.1;;
69917;SDS011;57203;42.672;23.334;2023-03-14T03:22:46;18.2;;;10.4;;
69917;SDS011;57203;42.672;23.334;2023-03-14T03:23:46;19.3;;;10.8;;
69917;SDS011;57203;42.672;23.334;2023-03-14T03:24:46;19.3;;;11.4;;
69917;SDS011;57203;42.672;23.334;2023-03-14T03:25:48;18.4;;;10.2;;
69917;SDS011;57203;42.672;23.334;2023-03-14T03:26:47;18.4;;;11.3;;
69917;SDS011;57203;42.672;23.334;2023-03-14T03:27:47;20.0;;;10.8;;
69917;SDS011;57203;42.672;23.334;2023-03-14T03:28:47;20.0;;;10.2;;
69917;SDS011;57203;42.672;23.334;2023-03-14T03:29:47;14.9;;;10.6;;
69917;SDS011;57203;42.672;23.334;2023-03-14T03:30:47;18.3;;;10.1;;
69917;SDS011;57203;42.672;23.334;2023-03-14T03:31:48;21.2;;;11.1;;
69917;SDS011;57203;42.672;23.334;2023-03-14T03:32:48;19.1;;;10.5;;
69917;SDS011;57203;42.672;23.334;2023-03-14T03:33:48;19.1;;;11.0;;
69917;SDS011;57203;42.672;23.334;2023-03-14T03:35:48;19.9;;;11.2;;
69917;SDS011;57203;42.672;23.334;2023-03-14T03:36:48;19.6;;;12.4;;
69917;SDS011;57203;42.672;23.334;2023-03-14T03:37:48;22.7;;;13.6;;
69917;SDS011;57203;42.672;23.334;2023-03-14T03:38:48;23.4;;;15.8;;
69917;SDS011;57203;42.672;23.334;2023-03-14T03:39:49;30.5;;;16.1;;
69917;SDS011;57203;42.672;23.334;2023-03-14T03:40:49;30.5;;;15.4;;
69917;SDS011;57203;42.672;23.334;2023-03-14T03:41:49;30.5;;;14.0;;
69917;SDS011;57203;42.672;23.334;2023-03-14T03:42:49;26.0;;;13.2;;
69917;SDS011;57203;42.672;23.334;2023-03-14T03:43:49;23.8;;;13.0;;
69917;SDS011;57203;42.672;23.334;2023-03-14T03:44:49;23.8;;;12.0;;
69917;SDS011;57203;42.672;23.334;2023-03-14T03:45:49;21.7;;;11.1;;
69917;SDS011;57203;42.672;23.334;2023-03-14T03:46:50;19.3;;;11.4;;
69917;SDS011;57203;42.672;23.334;2023-03-14T03:47:50;21.6;;;10.9;;
69917;SDS011;57203;42.672;23.334;2023-03-14T03:48:53;21.6;;;11.0;;
69917;SDS011;57203;42.672;23.334;2023-03-14T03:49:50;18.8;;;11.5;;
69917;SDS011;57203;42.672;23.334;2023-03-14T03:50:50;18.9;;;10.3;;
69917;SDS011;57203;42.672;23.334;2023-03-14T03:51:50;17.5;;;10.5;;
69917;SDS011;57203;42.672;23.334;2023-03-14T03:52:50;17.5;;;11.2;;
69917;SDS011;57203;42.672;23.334;2023-03-14T03:53:51;18.0;;;11.1;;
69917;SDS011;57203;42.672;23.334;2023-03-14T03:54:51;18.5;;;9.6;;
69917;SDS011;57203;42.672;23.334;2023-03-14T03:55:51;23.5;;;11.8;;
69917;SDS011;57203;42.672;23.334;2023-03-14T03:56:51;23.5;;;11.7;;
69917;SDS011;57203;42.672;23.334;2023-03-14T03:57:51;20.7;;;12.2;;
69917;SDS011;57203;42.672;23.334;2023-03-14T03:58:51;20.7;;;12.0;;
69917;SDS011;57203;42.672;23.334;2023-03-14T03:59:51;19.1;;;12.4;;
69917;SDS011;57203;42.672;23.334;2023-03-14T04:00:52;19.1;;;12.5;;
69917;SDS011;57203;42.672;23.334;2023-03-14T04:01:52;22.6;;;12.3;;
69917;SDS011;57203;42.672;23.334;2023-03-14T04:02:52;20.6;;;12.1;;
69917;SDS011;57203;42.672;23.334;2023-03-14T04:03:52;21.2;;;12.5;;
69917;SDS011;57203;42.672;23.334;2023-03-14T04:04:52;24.8;;;11.9;;
69917;SDS011;57203;42.672;23.334;2023-03-14T04:05:58;20.6;;;12.1;;
69917;SDS011;57203;42.672;23.334;2023-03-14T04:06:52;20.6;;;10.8;;
69917;SDS011;57203;42.672;23.334;2023-03-14T04:07:52;17.4;;;11.9;;
69917;SDS011;57203;42.672;23.334;2023-03-14T04:08:53;22.7;;;11.3;;
69917;SDS011;57203;42.672;23.334;2023-03-14T04:09:53;21.7;;;11.0;;
69917;SDS011;57203;42.672;23.334;2023-03-14T04:10:54;22.7;;;11.4;;
69917;SDS011;57203;42.672;23.334;2023-03-14T04:11:53;20.7;;;11.0;;
69917;SDS011;57203;42.672;23.334;2023-03-14T04:12:53;18.5;;;11.8;;
69917;SDS011;57203;42.672;23.334;2023-03-14T04:13:54;20.9;;;11.2;;
69917;SDS011;57203;42.672;23.334;2023-03-14T04:14:54;22.3;;;10.7;;
69917;SDS011;57203;42.672;23.334;2023-03-14T04:15:54;20.7;;;11.4;;
69917;SDS011;57203;42.672;23.334;2023-03-14T04:16:54;21.1;;;11.6;;
69917;SDS011;57203;42.672;23.334;2023-03-14T04:17:56;21.1;;;11.0;;
69917;SDS011;57203;42.672;23.334;2023-03-14T04:19:54;23.9;;;10.8;;
69917;SDS011;57203;42.672;23.334;2023-03-14T04:20:55;18.4;;;11.2;;
69917;SDS011;57203;42.672;23.334;2023-03-14T04:21:55;23.3;;;11.7;;
69917;SDS011;57203;42.672;23.334;2023-03-14T04:22:55;21.2;;;12.1;;
69917;SDS011;57203;42.672;23.334;2023-03-14T04:23:55;21.5;;;11.6;;
69917;SDS011;57203;42.672;23.334;2023-03-14T04:24:55;21.2;;;11.3;;
69917;SDS011;57203;42.672;23.334;2023-03-14T04:25:55;23.8;;;12.4;;
69917;SDS011;57203;42.672;23.334;2023-03-14T04:26:55;23.8;;;12.5;;
69917;SDS011;57203;42.672;23.334;2023-03-14T04:27:56;21.8;;;12.9;;
69917;SDS011;57203;42.672;23.334;2023-03-14T04:28:56;25.3;;;12.3;;
69917;SDS011;57203;42.672;23.334;2023-03-14T04:29:56;22.6;;;11.8;;
69917;SDS011;57203;42.672;23.334;2023-03-14T04:30:56;23.7;;;12.8;;
69917;SDS011;57203;42.672;23.334;2023-03-14T04:31:56;23.7;;;11.8;;
69917;SDS011;57203;42.672;23.334;2023-03-14T04:32:56;21.6;;;12.2;;
69917;SDS011;57203;42.672;23.334;2023-03-14T04:33:56;23.2;;;12.1;;
69917;SDS011;57203;42.672;23.334;2023-03-14T04:34:57;20.7;;;12.3;;
69917;SDS011;57203;42.672;23.334;2023-03-14T04:35:57;22.0;;;11.7;;
69917;SDS011;57203;42.672;23.334;2023-03-14T04:36:57;20.7;;;12.1;;
69917;SDS011;57203;42.672;23.334;2023-03-14T04:37:57;20.8;;;11.1;;
69917;SDS011;57203;42.672;23.334;2023-03-14T04:38:57;18.8;;;11.6;;
69917;SDS011;57203;42.672;23.334;2023-03-14T04:39:57;22.3;;;12.4;;
69917;SDS011;57203;42.672;23.334;2023-03-14T04:40:58;22.8;;;12.2;;
69917;SDS011;57203;42.672;23.334;2023-03-14T04:41:58;22.4;;;11.8;;
69917;SDS011;57203;42.672;23.334;2023-03-14T04:42:58;19.9;;;11.9;;
69917;SDS011;57203;42.672;23.334;2023-03-14T04:43:58;19.9;;;11.6;;
69917;SDS011;57203;42.672;23.334;2023-03-14T04:44:58;24.4;;;12.3;;
69917;SDS011;57203;42.672;23.334;2023-03-14T04:45:59;22.4;;;11.1;;
69917;SDS011;57203;42.672;23.334;2023-03-14T04:46:58;23.3;;;11.5;;
69917;SDS011;57203;42.672;23.334;2023-03-14T04:47:59;21.7;;;11.7;;
69917;SDS011;57203;42.672;23.334;2023-03-14T04:48:59;21.7;;;12.9;;
69917;SDS011;57203;42.672;23.334;2023-03-14T04:49:59;25.7;;;12.8;;
69917;SDS011;57203;42.672;23.334;2023-03-14T04:50:59;28.8;;;12.4;;
69917;SDS011;57203;42.672;23.334;2023-03-14T04:52:59;19.2;;;12.7;;
69917;SDS011;57203;42.672;23.334;2023-03-14T04:53:59;23.7;;;11.8;;
69917;SDS011;57203;42.672;23.334;2023-03-14T04:54:59;20.2;;;12.1;;
69917;SDS011;57203;42.672;23.334;2023-03-14T04:56:00;22.6;;;12.8;;
69917;SDS011;57203;42.672;23.334;2023-03-14T04:57:00;22.6;;;12.4;;
69917;SDS011;57203;42.672;23.334;2023-03-14T04:58:00;21.2;;;12.9;;
69917;SDS011;57203;42.672;23.334;2023-03-14T05:00:00;20.6;;;12.3;;
69917;SDS011;57203;42.672;23.334;2023-03-14T05:02:00;23.8;;;12.9;;
69917;SDS011;57203;42.672;23.334;2023-03-14T05:03:01;21.6;;;12.5;;
69917;SDS011;57203;42.672;23.334;2023-03-14T05:04:01;21.6;;;12.4;;
69917;SDS011;57203;42.672;23.334;2023-03-14T05:05:01;21.0;;;12.5;;
69917;SDS011;57203;42.672;23.334;2023-03-14T05:06:01;23.9;;;12.8;;
69917;SDS011;57203;42.672;23.334;2023-03-14T05:07:01;23.9;;;12.7;;
69917;SDS011;57203;42.672;23.334;2023-03-14T05:09:02;23.6;;;12.6;;
69917;SDS011;57203;42.672;23.334;2023-03-14T05:10:02;24.7;;;12.9;;
69917;SDS011;57203;42.672;23.334;2023-03-14T05:12:02;21.8;;;13.4;;
69917;SDS011;57203;42.672;23.334;2023-03-14T05:13:02;22.5;;;12.9;;
69917;SDS011;57203;42.672;23.334;2023-03-14T05:15:03;22.1;;;13.3;;
69917;SDS011;57203;42.672;23.334;2023-03-14T05:16:03;23.8;;;13.2;;
69917;SDS011;57203;42.672;23.334;2023-03-14T05:17:03;25.9;;;13.4;;
69917;SDS011;57203;42.672;23.334;2023-03-14T05:18:03;23.9;;;12.6;;
69917;SDS011;57203;42.672;23.334;2023-03-14T05:19:03;23.9;;;13.6;;
69917;SDS011;57203;42.672;23.334;2023-03-14T05:20:04;26.4;;;14.1;;
69917;SDS011;57203;42.672;23.334;2023-03-14T05:21:04;24.5;;;14.4;;
69917;SDS011;57203;42.672;23.334;2023-03-14T05:22:04;30.0;;;14.0;;
69917;SDS011;57203;42.672;23.334;2023-03-14T05:23:04;25.6;;;14.9;;
69917;SDS011;57203;42.672;23.334;2023-03-14T05:24:04;28.0;;;14.4;;
69917;SDS011;57203;42.672;23.334;2023-03-14T05:25:04;28.0;;;14.2;;
69917;SDS011;57203;42.672;23.334;2023-03-14T05:26:05;25.8;;;14.4;;
69917;SDS011;57203;42.672;23.334;2023-03-14T05:27:05;25.8;;;12.8;;
69917;SDS011;57203;42.672;23.334;2023-03-14T05:28:05;24.4;;;13.6;;
69917;SDS011;57203;42.672;23.334;2023-03-14T05:29:05;22.2;;;13.1;;
69917;SDS011;57203;42.672;23.334;2023-03-14T05:30:05;27.9;;;11.5;;
69917;SDS011;57203;42.672;23.334;2023-03-14T05:31:07;20.7;;;11.3;;
69917;SDS011;57203;42.672;23.334;2023-03-14T05:32:05;21.2;;;12.1;;
69917;SDS011;57203;42.672;23.334;2023-03-14T05:33:05;22.5;;;16.2;;
69917;SDS011;57203;42.672;23.334;2023-03-14T05:34:06;32.2;;;15.1;;
69917;SDS011;57203;42.672;23.334;2023-03-14T05:35:06;22.7;;;16.7;;
69917;SDS011;57203;42.672;23.334;2023-03-14T05:36:06;31.3;;;16.1;;
69917;SDS011;57203;42.672;23.334;2023-03-14T05:37:06;33.7;;;16.8;;
69917;SDS011;57203;42.672;23.334;2023-03-14T05:38:06;33.7;;;17.3;;
69917;SDS011;57203;42.672;23.334;2023-03-14T05:39:06;35.9;;;15.8;;
69917;SDS011;57203;42.672;23.334;2023-03-14T05:40:07;33.7;;;14.7;;
69917;SDS011;57203;42.672;23.334;2023-03-14T05:41:07;25.5;;;14.6;;
69917;SDS011;57203;42.672;23.334;2023-03-14T05:42:07;26.0;;;13.6;;
69917;SDS011;57203;42.672;23.334;2023-03-14T05:43:07;22.8;;;13.5;;
69917;SDS011;57203;42.672;23.334;2023-03-14T05:44:07;23.9;;;12.8;;
69917;SDS011;57203;42.672;23.334;2023-03-14T05:45:07;23.8;;;12.0;;
69917;SDS011;57203;42.672;23.334;2023-03-14T05:46:07;20.1;;;11.8;;
69917;SDS011;57203;42.672;23.334;2023-03-14T05:47:08;20.1;;;11.6;;
69917;SDS011;57203;42.672;23.334;2023-03-14T05:48:08;21.9;;;12.7;;
69917;SDS011;57203;42.672;23.334;2023-03-14T05:49:08;30.1;;;16.9;;
69917;SDS011;57203;42.672;23.334;2023-03-14T05:50:08;22.2;;;13.7;;
69917;SDS011;57203;42.672;23.334;2023-03-14T05:51:08;22.2;;;14.5;;
69917;SDS011;57203;42.672;23.334;2023-03-14T05:52:08;25.7;;;13.1;;
69917;SDS011;57203;42.672;23.334;2023-03-14T05:53:08;21.2;;;13.6;;
69917;SDS011;57203;42.672;23.334;2023-03-14T05:54:09;21.4;;;11.9;;
69917;SDS011;57203;42.672;23.334;2023-03-14T05:55:09;18.5;;;11.5;;
69917;SDS011;57203;42.672;23.334;2023-03-14T05:56:09;19.3;;;11.3;;
69917;SDS011;57203;42.672;23.334;2023-03-14T05:57:09;20.8;;;12.2;;
69917;SDS011;57203;42.672;23.334;2023-03-14T05:58:09;25.1;;;13.0;;
69917;SDS011;57203;42.672;23.334;2023-03-14T05:59:09;24.2;;;12.0;;
69917;SDS011;57203;42.672;23.334;2023-03-14T06:00:10;23.0;;;12.2;;
69917;SDS011;57203;42.672;23.334;2023-03-14T06:01:10;21.5;;;11.5;;
69917;SDS011;57203;42.672;23.334;2023-03-14T06:02:10;18.7;;;11.9;;
69917;SDS011;57203;42.672;23.334;2023-03-14T06:03:10;18.7;;;12.4;;
69917;SDS011;57203;42.672;23.334;2023-03-14T06:04:10;18.7;;;11.9;;
69917;SDS011;57203;42.672;23.334;2023-03-14T06:05:11;18.7;;;12.3;;
69917;SDS011;57203;42.672;23.334;2023-03-14T06:06:10;22.2;;;12.0;;
69917;SDS011;57203;42.672;23.334;2023-03-14T06:07:11;19.5;;;11.7;;
69917;SDS011;57203;42.672;23.334;2023-03-14T06:08:11;21.1;;;12.7;;
69917;SDS011;57203;42.672;23.334;2023-03-14T06:09:11;24.4;;;11.3;;
69917;SDS011;57203;42.672;23.334;2023-03-14T06:10:11;19.0;;;12.3;;
69917;SDS011;57203;42.672;23.334;2023-03-14T06:11:11;21.3;;;12.2;;
69917;SDS011;57203;42.672;23.334;2023-03-14T06:13:12;26.2;;;11.8;;
69917;SDS011;57203;42.672;23.334;2023-03-14T06:14:12;19.4;;;11.1;;
69917;SDS011;57203;42.672;23.334;2023-03-14T06:15:12;19.4;;;12.1;;
69917;SDS011;57203;42.672;23.334;2023-03-14T06:16:12;19.8;;;12.0;;
69917;SDS011;57203;42.672;23.334;2023-03-14T06:17:12;18.4;;;10.9;;
69917;SDS011;57203;42.672;23.334;2023-03-14T06:18:12;16.8;;;11.2;;
69917;SDS011;57203;42.672;23.334;2023-03-14T06:19:13;17.7;;;11.9;;
69917;SDS011;57203;42.672;23.334;2023-03-14T06:20:13;17.5;;;11.6;;
69917;SDS011;57203;42.672;23.334;2023-03-14T06:21:13;19.2;;;10.8;;
69917;SDS011;57203;42.672;23.334;2023-03-14T06:22:13;17.3;;;10.0;;
69917;SDS011;57203;42.672;23.334;2023-03-14T06:23:13;19.5;;;9.1;;